createdAt,value
2022-09-12T00:00:00.605Z,190.47
2022-09-12T00:01:00.641Z,189.81
2022-09-12T00:02:00.562Z,190.58
2022-09-12T00:03:00.484Z,190.80
2022-09-12T00:04:00.424Z,190.91
2022-09-12T00:05:00.392Z,190.80
2022-09-12T00:06:00.353Z,191.36
2022-09-12T00:07:00.324Z,191.92
2022-09-12T00:08:00.280Z,191.70
2022-09-12T00:09:00.233Z,191.36
2022-09-12T00:10:00.217Z,191.81
2022-09-12T00:11:00.154Z,191.70
2022-09-12T00:12:00.140Z,191.81
2022-09-12T00:13:00.071Z,191.47
2022-09-12T00:14:00.039Z,191.25
2022-09-12T00:14:59.998Z,192.26
2022-09-12T00:15:59.960Z,192.71
2022-09-12T00:16:59.933Z,191.47
2022-09-12T00:17:59.893Z,192.26
2022-09-12T00:18:59.841Z,191.36
2022-09-12T00:19:59.811Z,191.47
2022-09-12T00:20:59.800Z,192.15
2022-09-12T00:21:59.757Z,191.47
2022-09-12T00:22:59.710Z,191.36
2022-09-12T00:23:59.689Z,190.25
2022-09-12T00:24:59.649Z,191.47
2022-09-12T00:25:59.609Z,191.58
2022-09-12T00:26:59.611Z,191.36
2022-09-12T00:27:59.549Z,191.81
2022-09-12T00:28:59.518Z,192.03
2022-09-12T00:29:59.488Z,191.81
2022-09-12T00:30:59.471Z,191.81
2022-09-12T00:31:59.450Z,191.14
2022-09-12T00:32:59.417Z,192.03
2022-09-12T00:33:59.364Z,192.48
2022-09-12T00:34:59.338Z,193.16
2022-09-12T00:35:59.319Z,192.03
2022-09-12T00:36:59.295Z,191.81
2022-09-12T00:37:59.236Z,192.26
2022-09-12T00:38:59.217Z,191.25
2022-09-12T00:39:59.237Z,192.82
2022-09-12T00:40:59.143Z,191.92
2022-09-12T00:41:59.115Z,191.92
2022-09-12T00:42:59.083Z,191.58
2022-09-12T00:43:59.057Z,192.82
2022-09-12T00:44:59.014Z,193.96
2022-09-12T00:45:59.026Z,191.81
2022-09-12T00:46:58.964Z,191.81
2022-09-12T00:47:58.944Z,192.03
2022-09-12T00:48:58.889Z,192.48
2022-09-12T00:49:58.859Z,192.15
2022-09-12T00:50:58.813Z,193.73
2022-09-12T00:51:58.773Z,192.93
2022-09-12T00:52:58.754Z,192.37
2022-09-12T00:53:58.703Z,192.37
2022-09-12T00:54:58.663Z,192.48
2022-09-12T00:55:58.628Z,192.82
2022-09-12T00:56:58.583Z,193.05
2022-09-12T00:57:58.566Z,192.03
2022-09-12T00:58:58.517Z,192.82
2022-09-12T00:59:58.484Z,192.82
2022-09-12T01:00:58.534Z,191.92
2022-09-12T01:01:58.488Z,192.93
2022-09-12T01:02:58.381Z,193.16
2022-09-12T01:03:58.330Z,194.77
2022-09-12T01:04:58.304Z,196.28
2022-09-12T01:05:58.260Z,196.87
2022-09-12T01:06:58.227Z,196.75
2022-09-12T01:07:58.194Z,197.23
2022-09-12T01:08:58.158Z,195.35
2022-09-12T01:09:58.112Z,195.35
2022-09-12T01:10:58.089Z,194.77
2022-09-12T01:11:58.049Z,194.65
2022-09-12T01:12:58.020Z,194.65
2022-09-12T01:13:57.978Z,194.65
2022-09-12T01:14:57.948Z,194.65
2022-09-12T01:15:57.919Z,195.35
2022-09-12T01:16:57.902Z,195.12
2022-09-12T01:17:57.868Z,194.88
2022-09-12T01:18:57.818Z,195.35
2022-09-12T01:19:57.791Z,195.00
2022-09-12T01:20:57.752Z,194.54
2022-09-12T01:21:57.706Z,194.77
2022-09-12T01:22:57.691Z,193.62
2022-09-12T01:23:57.637Z,192.93
2022-09-12T01:24:57.589Z,194.54
2022-09-12T01:25:57.566Z,194.65
2022-09-12T01:26:57.515Z,194.77
2022-09-12T01:27:57.477Z,194.65
2022-09-12T01:28:57.489Z,194.54
2022-09-12T01:29:57.406Z,195.00
2022-09-12T01:30:57.376Z,196.05
2022-09-12T01:31:57.381Z,195.23
2022-09-12T01:32:57.314Z,196.05
2022-09-12T01:33:57.296Z,196.28
2022-09-12T01:34:57.255Z,196.28
2022-09-12T01:35:57.212Z,196.05
2022-09-12T01:36:57.174Z,196.40
2022-09-12T01:37:57.280Z,196.28
2022-09-12T01:38:57.134Z,196.63
2022-09-12T01:39:57.112Z,196.52
2022-09-12T01:40:57.044Z,198.30
2022-09-12T01:41:57.003Z,199.26
2022-09-12T01:42:56.972Z,196.99
2022-09-12T01:43:56.933Z,198.30
2022-09-12T01:44:56.872Z,198.30
2022-09-12T01:45:56.899Z,198.66
2022-09-12T01:46:56.781Z,198.06
2022-09-12T01:47:56.791Z,198.66
2022-09-12T01:48:56.714Z,199.38
2022-09-12T01:49:56.663Z,199.26
2022-09-12T01:50:56.613Z,197.70
2022-09-12T01:51:56.591Z,198.78
2022-09-12T01:52:56.540Z,199.99
2022-09-12T01:53:56.518Z,199.99
2022-09-12T01:54:56.481Z,200.60
2022-09-12T01:55:56.439Z,201.22
2022-09-12T01:56:56.419Z,200.48
2022-09-12T01:57:56.380Z,201.34
2022-09-12T01:58:56.358Z,200.97
2022-09-12T01:59:56.307Z,200.97
2022-09-12T02:00:56.336Z,201.09
2022-09-12T02:01:56.290Z,201.59
2022-09-12T02:02:56.199Z,200.48
2022-09-12T02:03:56.181Z,200.85
2022-09-12T02:04:56.136Z,201.09
2022-09-12T02:05:56.097Z,201.22
2022-09-12T02:06:56.078Z,201.09
2022-09-12T02:07:56.035Z,201.59
2022-09-12T02:08:56.014Z,201.96
2022-09-12T02:09:55.967Z,201.59
2022-09-12T02:10:55.934Z,202.21
2022-09-12T02:11:55.905Z,202.33
2022-09-12T02:12:55.888Z,201.22
2022-09-12T02:13:55.847Z,201.59
2022-09-12T02:14:55.807Z,202.96
2022-09-12T02:15:55.772Z,202.09
2022-09-12T02:16:55.734Z,201.84
2022-09-12T02:17:55.705Z,203.46
2022-09-12T02:18:55.695Z,202.33
2022-09-12T02:19:55.635Z,201.71
2022-09-12T02:20:55.603Z,203.09
2022-09-12T02:21:55.585Z,202.21
2022-09-12T02:22:55.543Z,202.21
2022-09-12T02:23:55.532Z,203.46
2022-09-12T02:24:55.474Z,202.09
2022-09-12T02:25:55.465Z,203.21
2022-09-12T02:26:55.433Z,202.71
2022-09-12T02:27:55.422Z,202.33
2022-09-12T02:28:55.383Z,201.46
2022-09-12T02:29:55.333Z,203.34
2022-09-12T02:30:55.352Z,203.21
2022-09-12T02:31:55.281Z,204.73
2022-09-12T02:32:55.244Z,205.50
2022-09-12T02:33:55.246Z,206.28
2022-09-12T02:34:55.189Z,205.63
2022-09-12T02:35:55.143Z,207.58
2022-09-12T02:36:55.131Z,206.67
2022-09-12T02:37:55.071Z,206.80
2022-09-12T02:38:55.087Z,206.67
2022-09-12T02:39:55.047Z,206.15
2022-09-12T02:40:54.960Z,206.93
2022-09-12T02:41:54.940Z,206.80
2022-09-12T02:42:54.931Z,207.98
2022-09-12T02:43:54.887Z,208.51
2022-09-12T02:44:54.850Z,209.17
2022-09-12T02:45:54.853Z,208.24
2022-09-12T02:46:54.793Z,209.84
2022-09-12T02:47:54.771Z,208.64
2022-09-12T02:48:54.760Z,207.19
2022-09-12T02:49:54.722Z,209.17
2022-09-12T02:50:54.690Z,209.17
2022-09-12T02:51:54.660Z,209.04
2022-09-12T02:52:54.633Z,208.64
2022-09-12T02:53:54.618Z,208.51
2022-09-12T02:54:54.569Z,208.11
2022-09-12T02:55:54.537Z,208.90
2022-09-12T02:56:54.507Z,209.44
2022-09-12T02:57:54.498Z,208.90
2022-09-12T02:58:54.458Z,209.84
2022-09-12T02:59:54.427Z,209.04
2022-09-12T03:00:54.432Z,208.24
2022-09-12T03:01:54.405Z,209.44
2022-09-12T03:02:54.327Z,207.32
2022-09-12T03:03:54.306Z,209.04
2022-09-12T03:04:54.294Z,208.24
2022-09-12T03:05:54.234Z,208.77
2022-09-12T03:06:54.187Z,209.04
2022-09-12T03:07:54.145Z,208.64
2022-09-12T03:08:54.113Z,209.71
2022-09-12T03:09:54.086Z,208.64
2022-09-12T03:10:54.043Z,208.11
2022-09-12T03:11:54.014Z,209.04
2022-09-12T03:12:53.973Z,209.04
2022-09-12T03:13:53.962Z,208.51
2022-09-12T03:14:53.923Z,209.04
2022-09-12T03:15:53.884Z,209.71
2022-09-12T03:16:53.864Z,209.30
2022-09-12T03:17:53.823Z,209.57
2022-09-12T03:18:53.802Z,209.71
2022-09-12T03:19:53.785Z,209.97
2022-09-12T03:20:53.742Z,208.77
2022-09-12T03:21:53.713Z,210.11
2022-09-12T03:22:53.683Z,209.84
2022-09-12T03:23:53.653Z,210.92
2022-09-12T03:24:53.632Z,209.44
2022-09-12T03:25:53.580Z,211.33
2022-09-12T03:26:53.553Z,210.38
2022-09-12T03:27:53.520Z,207.85
2022-09-12T03:28:53.491Z,211.74
2022-09-12T03:29:53.470Z,211.05
2022-09-12T03:30:53.513Z,212.28
2022-09-12T03:31:53.397Z,211.19
2022-09-12T03:32:53.379Z,211.05
2022-09-12T03:33:53.338Z,211.74
2022-09-12T03:34:53.309Z,210.38
2022-09-12T03:35:53.270Z,209.84
2022-09-12T03:36:53.249Z,211.05
2022-09-12T03:37:53.247Z,210.65
2022-09-12T03:38:53.187Z,211.87
2022-09-12T03:39:53.232Z,210.51
2022-09-12T03:40:55.015Z,209.97
2022-09-12T03:41:53.128Z,211.33
2022-09-12T03:42:53.081Z,211.74
2022-09-12T03:43:53.047Z,213.11
2022-09-12T03:44:53.037Z,210.78
2022-09-12T03:45:53.053Z,211.33
2022-09-12T03:46:52.979Z,211.19
2022-09-12T03:47:52.938Z,210.51
2022-09-12T03:48:52.938Z,212.56
2022-09-12T03:49:52.894Z,212.15
2022-09-12T03:50:52.855Z,211.33
2022-09-12T03:51:52.827Z,211.33
2022-09-12T03:52:52.806Z,213.39
2022-09-12T03:53:52.804Z,212.01
2022-09-12T03:54:52.756Z,213.80
2022-09-12T03:55:52.704Z,212.83
2022-09-12T03:56:52.685Z,212.97
2022-09-12T03:57:52.656Z,212.70
2022-09-12T03:58:52.644Z,214.64
2022-09-12T03:59:52.615Z,213.94
2022-09-12T04:00:52.638Z,215.21
2022-09-12T04:01:52.606Z,214.36
2022-09-12T04:02:52.514Z,212.42
2022-09-12T04:03:52.505Z,213.25
2022-09-12T04:04:52.454Z,210.24
2022-09-12T04:05:52.434Z,213.25
2022-09-12T04:06:52.406Z,212.28
2022-09-12T04:07:52.384Z,212.01
2022-09-12T04:08:52.343Z,212.97
2022-09-12T04:09:52.322Z,211.46
2022-09-12T04:10:52.281Z,213.25
2022-09-12T04:11:52.251Z,210.65
2022-09-12T04:12:52.224Z,213.53
2022-09-12T04:13:52.173Z,213.53
2022-09-12T04:14:52.182Z,213.25
2022-09-12T04:15:52.111Z,213.80
2022-09-12T04:16:52.140Z,213.25
2022-09-12T04:17:52.048Z,214.08
2022-09-12T04:18:52.014Z,213.11
2022-09-12T04:19:51.989Z,213.53
2022-09-12T04:20:51.948Z,212.28
2022-09-12T04:21:51.938Z,211.87
2022-09-12T04:22:51.899Z,213.94
2022-09-12T04:23:51.858Z,213.11
2022-09-12T04:24:51.856Z,213.67
2022-09-12T04:25:51.789Z,211.74
2022-09-12T04:26:51.777Z,213.67
2022-09-12T04:27:51.730Z,214.08
2022-09-12T04:28:51.708Z,215.63
2022-09-12T04:29:51.703Z,214.08
2022-09-12T04:30:51.704Z,216.06
2022-09-12T04:31:51.607Z,213.11
2022-09-12T04:32:51.588Z,213.80
2022-09-12T04:33:51.549Z,215.77
2022-09-12T04:34:51.515Z,213.94
2022-09-12T04:35:51.473Z,216.49
2022-09-12T04:36:51.427Z,210.78
2022-09-12T04:37:51.396Z,214.22
2022-09-12T04:38:51.357Z,213.94
2022-09-12T04:39:51.414Z,214.36
2022-09-12T04:40:51.290Z,214.64
2022-09-12T04:41:51.257Z,214.08
2022-09-12T04:42:51.225Z,215.49
2022-09-12T04:43:51.204Z,214.08
2022-09-12T04:44:51.175Z,216.20
2022-09-12T04:45:51.147Z,215.21
2022-09-12T04:46:51.086Z,215.21
2022-09-12T04:47:51.054Z,215.49
2022-09-12T04:48:54.627Z,215.35
2022-09-12T04:49:52.013Z,215.21
2022-09-12T04:50:50.924Z,214.22
2022-09-12T04:51:50.893Z,214.36
2022-09-12T04:52:50.874Z,211.87
2022-09-12T04:53:50.823Z,214.50
2022-09-12T04:54:50.802Z,215.63
2022-09-12T04:55:50.760Z,215.49
2022-09-12T04:56:50.732Z,215.35
2022-09-12T04:57:50.690Z,215.49
2022-09-12T04:58:50.671Z,213.39
2022-09-12T04:59:50.646Z,214.36
2022-09-12T05:00:50.608Z,214.22
2022-09-12T05:01:50.636Z,215.35
2022-09-12T05:02:50.538Z,214.50
2022-09-12T05:03:50.500Z,215.77
2022-09-12T05:04:50.478Z,216.34
2022-09-12T05:05:53.329Z,216.63
2022-09-12T05:06:51.387Z,216.06
2022-09-12T05:07:50.360Z,215.77
2022-09-12T05:08:50.330Z,216.49
2022-09-12T05:09:50.307Z,217.06
2022-09-12T05:10:50.281Z,217.92
2022-09-12T05:12:05.956Z,217.63
2022-09-12T05:12:51.216Z,216.91
2022-09-12T05:13:50.166Z,218.65
2022-09-12T05:14:50.148Z,218.07
2022-09-12T05:15:50.098Z,218.50
2022-09-12T05:16:50.139Z,217.35
2022-09-12T05:17:50.036Z,218.36
2022-09-12T05:18:50.020Z,219.23
2022-09-12T05:19:49.985Z,219.53
2022-09-12T05:20:49.927Z,218.79
2022-09-12T05:21:49.907Z,218.79
2022-09-12T05:22:49.856Z,217.20
2022-09-12T05:23:49.820Z,218.79
2022-09-12T05:24:58.231Z,218.65
2022-09-12T05:25:50.756Z,217.63
2022-09-12T05:26:49.725Z,217.63
2022-09-12T05:27:50.606Z,216.77
2022-09-12T05:28:49.637Z,216.91
2022-09-12T05:29:49.614Z,215.21
2022-09-12T05:30:49.592Z,217.92
2022-09-12T05:31:49.523Z,216.63
2022-09-12T05:32:49.488Z,216.34
2022-09-12T05:33:49.448Z,215.77
2022-09-12T05:34:49.424Z,216.91
2022-09-12T05:35:49.377Z,216.34
2022-09-12T05:36:49.345Z,217.06
2022-09-12T05:37:49.324Z,217.20
2022-09-12T05:38:49.284Z,217.06
2022-09-12T05:39:49.269Z,216.63
2022-09-12T05:40:49.213Z,216.77
2022-09-12T05:41:49.180Z,217.20
2022-09-12T05:42:49.143Z,217.92
2022-09-12T05:43:49.134Z,218.07
2022-09-12T05:44:49.106Z,217.35
2022-09-12T05:45:49.097Z,216.34
2022-09-12T05:46:49.042Z,217.06
2022-09-12T05:47:49.011Z,216.20
2022-09-12T05:48:52.502Z,215.63
2022-09-12T05:49:49.940Z,215.21
2022-09-12T05:50:48.891Z,216.06
2022-09-12T05:51:48.850Z,215.91
2022-09-12T05:52:48.822Z,215.21
2022-09-12T05:53:48.780Z,216.34
2022-09-12T05:54:48.760Z,215.63
2022-09-12T05:55:48.709Z,216.20
2022-09-12T05:56:48.691Z,217.06
2022-09-12T05:57:48.660Z,218.65
2022-09-12T05:58:48.619Z,217.20
2022-09-12T05:59:48.601Z,218.21
2022-09-12T06:00:48.567Z,218.07
2022-09-12T06:01:48.661Z,217.92
2022-09-12T06:02:48.479Z,217.06
2022-09-12T06:03:48.437Z,216.63
2022-09-12T06:04:48.425Z,216.77
2022-09-12T06:05:50.680Z,218.79
2022-09-12T06:06:48.348Z,220.86
2022-09-12T06:07:48.316Z,222.35
2022-09-12T06:08:48.405Z,222.65
2022-09-12T06:09:48.246Z,224.48
2022-09-12T06:10:48.226Z,224.18
2022-09-12T06:11:48.165Z,225.25
2022-09-12T06:12:48.126Z,227.44
2022-09-12T06:13:48.086Z,227.76
2022-09-12T06:14:48.066Z,226.50
2022-09-12T06:15:48.025Z,226.81
2022-09-12T06:16:48.057Z,226.65
2022-09-12T06:17:51.283Z,226.03
2022-09-12T06:18:47.925Z,224.64
2022-09-12T06:19:47.879Z,223.72
2022-09-12T06:20:47.864Z,222.50
2022-09-12T06:21:47.811Z,222.96
2022-09-12T06:22:47.796Z,222.35
2022-09-12T06:23:47.745Z,223.87
2022-09-12T06:24:47.749Z,224.02
2022-09-12T06:25:47.673Z,223.72
2022-09-12T06:26:47.656Z,224.79
2022-09-12T06:27:47.602Z,225.25
2022-09-12T06:28:47.678Z,224.79
2022-09-12T06:29:47.534Z,225.10
2022-09-12T06:30:47.552Z,225.25
2022-09-12T06:31:47.935Z,226.03
2022-09-12T06:32:47.432Z,227.60
2022-09-12T06:33:47.413Z,226.97
2022-09-12T06:34:47.362Z,227.60
2022-09-12T06:35:47.367Z,227.28
2022-09-12T06:36:47.283Z,229.35
2022-09-12T06:37:47.261Z,227.91
2022-09-12T06:38:47.243Z,226.18
2022-09-12T06:39:47.271Z,228.39
2022-09-12T06:40:47.179Z,227.44
2022-09-12T06:41:47.105Z,226.97
2022-09-12T06:42:47.073Z,227.12
2022-09-12T06:43:47.046Z,226.34
2022-09-12T06:44:47.006Z,226.81
2022-09-12T06:45:47.021Z,227.28
2022-09-12T06:46:46.951Z,227.91
2022-09-12T06:47:46.928Z,226.97
2022-09-12T06:48:46.889Z,227.60
2022-09-12T06:49:46.848Z,226.50
2022-09-12T06:50:46.829Z,227.12
2022-09-12T06:51:46.795Z,228.55
2022-09-12T06:52:46.762Z,227.91
2022-09-12T06:53:46.718Z,228.23
2022-09-12T06:54:46.698Z,226.65
2022-09-12T06:55:46.677Z,229.67
2022-09-12T06:56:46.638Z,227.91
2022-09-12T06:57:46.608Z,229.99
2022-09-12T06:58:46.637Z,225.10
2022-09-12T06:59:46.556Z,229.19
2022-09-12T07:00:46.532Z,228.55
2022-09-12T07:01:46.519Z,227.91
2022-09-12T07:02:46.455Z,224.33
2022-09-12T07:03:46.434Z,227.91
2022-09-12T07:04:46.407Z,226.18
2022-09-12T07:05:46.374Z,228.23
2022-09-12T07:06:46.355Z,227.60
2022-09-12T07:07:46.316Z,227.60
2022-09-12T07:08:46.285Z,224.48
2022-09-12T07:09:46.263Z,226.18
2022-09-12T07:10:46.243Z,226.97
2022-09-12T07:11:46.243Z,227.76
2022-09-12T07:12:46.184Z,228.87
2022-09-12T07:13:46.239Z,227.60
2022-09-12T07:14:46.125Z,224.64
2022-09-12T07:15:46.094Z,224.18
2022-09-12T07:16:46.094Z,226.65
2022-09-12T07:17:46.035Z,225.41
2022-09-12T07:18:45.990Z,225.10
2022-09-12T07:19:45.960Z,226.18
2022-09-12T07:20:45.938Z,221.45
2022-09-12T07:21:45.912Z,223.72
2022-09-12T07:22:45.864Z,224.02
2022-09-12T07:23:45.830Z,223.26
2022-09-12T07:24:45.805Z,226.18
2022-09-12T07:25:45.772Z,223.72
2022-09-12T07:26:45.741Z,226.18
2022-09-12T07:27:50.612Z,226.18
2022-09-12T07:28:46.660Z,226.03
2022-09-12T07:29:45.642Z,225.56
2022-09-12T07:30:45.634Z,225.56
2022-09-12T07:31:45.609Z,225.10
2022-09-12T07:32:45.559Z,226.81
2022-09-12T07:33:45.522Z,226.81
2022-09-12T07:34:45.489Z,226.18
2022-09-12T07:35:45.478Z,224.79
2022-09-12T07:36:45.429Z,222.96
2022-09-12T07:37:45.389Z,225.56
2022-09-12T07:38:45.374Z,224.48
2022-09-12T07:39:45.386Z,222.96
2022-09-12T07:40:45.318Z,222.20
2022-09-12T07:41:45.257Z,223.72
2022-09-12T07:42:45.238Z,222.65
2022-09-12T07:43:45.198Z,221.90
2022-09-12T07:44:45.188Z,220.71
2022-09-12T07:45:45.194Z,221.15
2022-09-12T07:46:45.113Z,220.71
2022-09-12T07:47:45.077Z,220.56
2022-09-12T07:48:45.044Z,221.60
2022-09-12T07:49:45.024Z,221.75
2022-09-12T07:50:45.249Z,220.26
2022-09-12T07:51:44.956Z,219.67
2022-09-12T07:52:44.927Z,220.12
2022-09-12T07:53:44.934Z,219.67
2022-09-12T07:54:44.870Z,219.53
2022-09-12T07:55:44.837Z,220.26
2022-09-12T07:56:44.815Z,220.26
2022-09-12T07:57:45.054Z,219.82
2022-09-12T07:58:44.784Z,219.97
2022-09-12T07:59:53.142Z,218.79
2022-09-12T08:00:45.680Z,218.36
2022-09-12T08:01:44.700Z,218.94
2022-09-12T08:02:44.644Z,219.23
2022-09-12T08:03:44.609Z,219.23
2022-09-12T08:04:44.552Z,221.30
2022-09-12T08:05:44.532Z,219.23
2022-09-12T08:06:44.512Z,220.26
2022-09-12T08:07:44.480Z,217.78
2022-09-12T08:08:44.439Z,218.21
2022-09-12T08:09:44.410Z,217.35
2022-09-12T08:10:44.371Z,217.92
2022-09-12T08:11:44.341Z,219.38
2022-09-12T08:12:44.308Z,217.63
2022-09-12T08:13:44.305Z,220.41
2022-09-12T08:14:44.244Z,218.50
2022-09-12T08:15:44.278Z,218.07
2022-09-12T08:16:44.207Z,217.63
2022-09-12T08:17:44.160Z,218.07
2022-09-12T08:18:44.127Z,215.63
2022-09-12T08:19:44.098Z,216.34
2022-09-12T08:20:44.067Z,214.79
2022-09-12T08:21:44.047Z,215.35
2022-09-12T08:22:43.996Z,214.36
2022-09-12T08:23:43.958Z,213.67
2022-09-12T08:24:43.936Z,213.11
2022-09-12T08:25:43.886Z,211.46
2022-09-12T08:26:43.857Z,211.87
2022-09-12T08:27:43.816Z,208.90
2022-09-12T08:28:43.786Z,208.24
2022-09-12T08:29:43.755Z,206.28
2022-09-12T08:30:43.731Z,204.61
2022-09-12T08:31:43.686Z,202.96
2022-09-12T08:32:43.646Z,205.63
2022-09-12T08:33:43.604Z,203.97
2022-09-12T08:34:43.575Z,204.48
2022-09-12T08:35:43.515Z,205.50
2022-09-12T08:36:43.507Z,205.24
2022-09-12T08:37:43.446Z,204.73
2022-09-12T08:38:43.404Z,206.28
2022-09-12T08:39:43.416Z,206.80
2022-09-12T08:40:43.340Z,206.15
2022-09-12T08:41:43.311Z,207.85
2022-09-12T08:42:43.255Z,206.67
2022-09-12T08:43:43.224Z,206.54
2022-09-12T08:44:43.194Z,205.76
2022-09-12T08:45:43.197Z,205.12
2022-09-12T08:46:44.063Z,204.86
2022-09-12T08:47:43.064Z,204.22
2022-09-12T08:48:43.031Z,206.15
2022-09-12T08:49:43.005Z,204.61
2022-09-12T08:50:46.598Z,204.48
2022-09-12T08:51:42.960Z,204.10
2022-09-12T08:52:42.911Z,202.58
2022-09-12T08:53:42.881Z,201.96
2022-09-12T08:54:42.845Z,201.22
2022-09-12T08:55:42.821Z,202.09
2022-09-12T08:56:42.789Z,201.34
2022-09-12T08:57:42.740Z,200.85
2022-09-12T08:58:42.708Z,201.34
2022-09-12T08:59:42.670Z,200.48
2022-09-12T09:00:42.640Z,200.36
2022-09-12T09:01:42.692Z,201.46
2022-09-12T09:02:42.635Z,202.09
2022-09-12T09:03:42.577Z,203.21
2022-09-12T09:04:42.508Z,202.84
2022-09-12T09:05:42.478Z,202.09
2022-09-12T09:06:42.449Z,201.22
2022-09-12T09:07:42.388Z,202.33
2022-09-12T09:08:42.347Z,199.51
2022-09-12T09:09:42.316Z,198.78
2022-09-12T09:10:42.279Z,198.54
2022-09-12T09:11:42.248Z,199.26
2022-09-12T09:12:42.205Z,197.82
2022-09-12T09:13:42.204Z,197.82
2022-09-12T09:14:42.125Z,197.58
2022-09-12T09:15:42.109Z,196.63
2022-09-12T09:16:42.323Z,195.93
2022-09-12T09:17:42.040Z,194.88
2022-09-12T09:18:42.657Z,193.28
2022-09-12T09:19:41.945Z,191.36
2022-09-12T09:20:41.975Z,193.05
2022-09-12T09:21:41.885Z,191.58
2022-09-12T09:22:41.836Z,191.70
2022-09-12T09:23:41.853Z,192.26
2022-09-12T09:24:41.795Z,194.31
2022-09-12T09:25:41.723Z,191.70
2022-09-12T09:26:41.695Z,190.03
2022-09-12T09:27:41.892Z,190.14
2022-09-12T09:28:41.614Z,189.04
2022-09-12T09:29:41.563Z,187.32
2022-09-12T09:30:41.587Z,187.96
2022-09-12T09:31:41.500Z,185.94
2022-09-12T09:32:41.464Z,184.89
2022-09-12T09:33:41.425Z,186.45
2022-09-12T09:34:41.383Z,186.87
2022-09-12T09:35:41.346Z,184.89
2022-09-12T09:36:41.322Z,186.45
2022-09-12T09:37:41.250Z,188.18
2022-09-12T09:38:41.223Z,191.47
2022-09-12T09:39:41.213Z,200.11
2022-09-12T09:40:41.134Z,202.84
2022-09-12T09:41:41.109Z,205.50
2022-09-12T09:42:41.043Z,204.73
2022-09-12T09:43:40.995Z,209.17
2022-09-12T09:44:40.962Z,211.60
2022-09-12T09:45:43.433Z,216.06
2022-09-12T09:46:41.947Z,217.35
2022-09-12T09:47:40.842Z,218.07
2022-09-12T09:48:40.800Z,215.77
2022-09-12T09:49:40.757Z,214.79
2022-09-12T09:50:40.707Z,213.11
2022-09-12T09:51:40.678Z,207.58
2022-09-12T09:52:40.649Z,207.98
2022-09-12T09:53:40.579Z,207.85
2022-09-12T09:54:40.539Z,204.86
2022-09-12T09:55:40.488Z,202.84
2022-09-12T09:56:40.459Z,202.71
2022-09-12T09:57:40.389Z,202.33
2022-09-12T09:58:40.357Z,200.85
2022-09-12T09:59:40.304Z,199.02
2022-09-12T10:00:40.260Z,198.18
2022-09-12T10:01:40.266Z,196.16
2022-09-12T10:02:40.206Z,193.96
2022-09-12T10:03:40.115Z,192.15
2022-09-12T10:04:41.618Z,190.58
2022-09-12T10:05:40.025Z,187.64
2022-09-12T10:06:39.986Z,188.29
2022-09-12T10:07:39.946Z,187.00
2022-09-12T10:08:39.885Z,185.83
2022-09-12T10:09:39.849Z,183.78
2022-09-12T10:10:39.804Z,181.58
2022-09-12T10:11:43.694Z,180.60
2022-09-12T10:12:40.748Z,178.67
2022-09-12T10:13:39.704Z,178.86
2022-09-12T10:14:39.654Z,177.53
2022-09-12T10:15:39.672Z,176.77
2022-09-12T10:16:39.583Z,176.59
2022-09-12T10:17:39.552Z,175.47
2022-09-12T10:18:39.493Z,174.55
2022-09-12T10:19:39.462Z,173.83
2022-09-12T10:20:39.431Z,172.75
2022-09-12T10:21:41.175Z,171.33
2022-09-12T10:22:39.362Z,170.11
2022-09-12T10:23:39.314Z,169.42
2022-09-12T10:24:39.280Z,169.24
2022-09-12T10:25:39.231Z,169.59
2022-09-12T10:26:39.194Z,168.39
2022-09-12T10:27:39.161Z,167.71
2022-09-12T10:28:39.123Z,167.38
2022-09-12T10:29:39.081Z,168.22
2022-09-12T10:30:39.075Z,167.21
2022-09-12T10:31:38.999Z,166.21
2022-09-12T10:32:38.969Z,165.71
2022-09-12T10:33:38.911Z,165.22
2022-09-12T10:34:38.878Z,166.21
2022-09-12T10:35:38.838Z,166.04
2022-09-12T10:36:38.809Z,166.71
2022-09-12T10:37:38.778Z,167.54
2022-09-12T10:38:38.729Z,167.04
2022-09-12T10:39:38.762Z,166.71
2022-09-12T10:40:38.648Z,166.21
2022-09-12T10:41:38.599Z,166.71
2022-09-12T10:42:38.579Z,166.88
2022-09-12T10:43:38.521Z,167.38
2022-09-12T10:44:38.478Z,167.04
2022-09-12T10:45:38.466Z,166.88
2022-09-12T10:46:38.397Z,166.04
2022-09-12T10:47:38.356Z,165.39
2022-09-12T10:48:38.309Z,164.57
2022-09-12T10:49:38.258Z,165.06
2022-09-12T10:50:38.217Z,164.73
2022-09-12T10:51:38.197Z,163.60
2022-09-12T10:52:38.154Z,163.12
2022-09-12T10:53:38.106Z,163.28
2022-09-12T10:54:38.075Z,163.76
2022-09-12T10:55:38.015Z,165.22
2022-09-12T10:56:37.974Z,166.88
2022-09-12T10:57:37.960Z,165.22
2022-09-12T10:58:37.905Z,166.71
2022-09-12T10:59:37.854Z,164.57
2022-09-12T11:00:38.747Z,164.57
2022-09-12T11:01:37.785Z,163.28
2022-09-12T11:02:37.760Z,162.33
2022-09-12T11:03:37.692Z,162.65
2022-09-12T11:04:37.646Z,163.28
2022-09-12T11:05:37.610Z,162.33
2022-09-12T11:06:37.572Z,162.80
2022-09-12T11:07:37.523Z,163.60
2022-09-12T11:08:37.770Z,162.33
2022-09-12T11:09:37.442Z,162.80
2022-09-12T11:10:40.463Z,162.65
2022-09-12T11:11:38.562Z,163.12
2022-09-12T11:12:37.331Z,163.12
2022-09-12T11:13:37.317Z,162.01
2022-09-12T11:14:37.241Z,162.17
2022-09-12T11:15:37.244Z,162.17
2022-09-12T11:16:37.150Z,161.54
2022-09-12T11:17:37.111Z,160.77
2022-09-12T11:18:37.091Z,160.77
2022-09-12T11:19:37.317Z,162.33
2022-09-12T11:20:37.603Z,162.96
2022-09-12T11:21:36.960Z,164.57
2022-09-12T11:22:36.909Z,165.06
2022-09-12T11:23:36.929Z,164.57
2022-09-12T11:24:36.818Z,163.12
2022-09-12T11:25:36.778Z,163.92
2022-09-12T11:26:36.729Z,162.65
2022-09-12T11:27:36.678Z,162.65
2022-09-12T11:28:36.647Z,164.09
2022-09-12T11:29:36.588Z,165.39
2022-09-12T11:30:37.685Z,166.21
2022-09-12T11:31:36.518Z,164.41
2022-09-12T11:32:36.458Z,166.04
2022-09-12T11:33:40.899Z,166.21
2022-09-12T11:34:37.357Z,166.21
2022-09-12T11:35:36.468Z,166.21
2022-09-12T11:36:37.549Z,166.88
2022-09-12T11:37:36.446Z,166.04
2022-09-12T11:38:37.018Z,166.54
2022-09-12T11:39:37.251Z,165.71
2022-09-12T11:40:40.426Z,166.21
2022-09-12T11:41:36.036Z,166.04
2022-09-12T11:42:36.004Z,166.21
2022-09-12T11:43:36.452Z,166.21
2022-09-12T11:44:40.053Z,165.88
2022-09-12T11:45:36.626Z,166.54
2022-09-12T11:46:36.606Z,166.38
2022-09-12T11:47:37.371Z,165.71
2022-09-12T11:48:36.362Z,165.39
2022-09-12T11:49:36.351Z,165.22
2022-09-12T11:50:36.073Z,163.60
2022-09-12T11:51:36.172Z,164.25
2022-09-12T11:52:35.543Z,164.57
2022-09-12T11:53:35.536Z,164.41
2022-09-12T11:54:35.453Z,165.55
2022-09-12T11:55:35.413Z,165.71
2022-09-12T11:56:35.381Z,165.06
2022-09-12T11:57:35.349Z,164.25
2022-09-12T11:58:35.918Z,164.41
2022-09-12T11:59:35.766Z,167.04
2022-09-12T12:00:35.231Z,167.21
2022-09-12T12:01:40.417Z,167.04
2022-09-12T12:02:36.171Z,168.56
2022-09-12T12:03:35.163Z,170.11
2022-09-12T12:04:35.068Z,170.46
2022-09-12T12:05:35.190Z,168.39
2022-09-12T12:06:34.979Z,168.56
2022-09-12T12:07:34.930Z,167.71
2022-09-12T12:08:34.903Z,171.51
2022-09-12T12:09:34.941Z,172.21
2022-09-12T12:10:35.080Z,172.21
2022-09-12T12:11:34.769Z,174.19
2022-09-12T12:12:34.728Z,174.74
2022-09-12T12:13:34.691Z,175.29
2022-09-12T12:14:34.647Z,175.10
2022-09-12T12:15:34.642Z,176.03
2022-09-12T12:16:34.710Z,177.53
2022-09-12T12:17:34.519Z,179.82
2022-09-12T12:18:34.477Z,181.98
2022-09-12T12:19:34.738Z,179.82
2022-09-12T12:20:34.389Z,180.60
2022-09-12T12:21:34.337Z,182.98
2022-09-12T12:22:34.297Z,186.04
2022-09-12T12:23:34.257Z,185.62
2022-09-12T12:24:34.225Z,184.39
2022-09-12T12:25:34.194Z,184.19
2022-09-12T12:26:34.129Z,185.21
2022-09-12T12:27:34.087Z,182.98